sensor_id;sensor_type;location;lat;lon;timestamp;pressure;altitude;pressure_sealevel;temperature;humidity
5053;BME280;2545;50.892;5.740;2022-11-12T00:00:13;56263.06;;;-142.21;100.00
5053;BME280;2545;50.892;5.740;2022-11-12T00:02:39;56261.13;;;-142.21;100.00
5053;BME280;2545;50.892;5.740;2022-11-12T00:05:04;56276.81;;;-142.21;100.00
5053;BME280;2545;50.892;5.740;2022-11-12T00:07:29;56235.63;;;-142.21;100.00
5053;BME280;2545;50.892;5.740;2022-11-12T00:09:55;56272.88;;;-142.21;100.00
5053;BME280;2545;50.892;5.740;2022-11-12T00:12:20;56276.81;;;-142.21;100.00
5053;BME280;2545;50.892;5.740;2022-11-12T00:14:45;56267.00;;;-142.21;100.00
5053;BME280;2545;50.892;5.740;2022-11-12T00:17:11;56272.88;;;-142.21;100.00
5053;BME280;2545;50.892;5.740;2022-11-12T00:19:36;56247.38;;;-142.21;100.00
5053;BME280;2545;50.892;5.740;2022-11-12T00:22:01;56292.50;;;-142.21;100.00
5053;BME280;2545;50.892;5.740;2022-11-12T00:24:27;56235.63;;;-142.21;100.00
5053;BME280;2545;50.892;5.740;2022-11-12T00:26:52;56233.66;;;-142.21;100.00
5053;BME280;2545;50.892;5.740;2022-11-12T00:29:17;56282.69;;;-142.21;100.00
5053;BME280;2545;50.892;5.740;2022-11-12T00:31:42;56259.16;;;-142.21;100.00
5053;BME280;2545;50.892;5.740;2022-11-12T00:34:08;56276.81;;;-142.21;100.00
5053;BME280;2545;50.892;5.740;2022-11-12T00:36:33;56265.03;;;-142.21;100.00
5053;BME280;2545;50.892;5.740;2022-11-12T00:38:58;56233.66;;;-142.21;100.00
5053;BME280;2545;50.892;5.740;2022-11-12T00:41:23;56241.50;;;-142.21;100.00
5053;BME280;2545;50.892;5.740;2022-11-12T00:43:49;56225.81;;;-142.21;100.00
5053;BME280;2545;50.892;5.740;2022-11-12T00:46:14;56276.81;;;-142.21;100.00
5053;BME280;2545;50.892;5.740;2022-11-12T00:48:40;56272.88;;;-142.21;100.00
5053;BME280;2545;50.892;5.740;2022-11-12T00:51:05;56292.50;;;-142.21;100.00
5053;BME280;2545;50.892;5.740;2022-11-12T00:53:31;56251.31;;;-142.21;100.00
5053;BME280;2545;50.892;5.740;2022-11-12T00:56:03;56267.00;;;-142.21;100.00
5053;BME280;2545;50.892;5.740;2022-11-12T00:58:30;56245.44;;;-142.21;100.00
5053;BME280;2545;50.892;5.740;2022-11-12T01:00:56;56288.56;;;-142.21;100.00
5053;BME280;2545;50.892;5.740;2022-11-12T01:03:22;56280.72;;;-142.21;100.00
5053;BME280;2545;50.892;5.740;2022-11-12T01:05:48;56284.66;;;-142.21;100.00
5053;BME280;2545;50.892;5.740;2022-11-12T01:08:13;56282.69;;;-142.21;100.00
5053;BME280;2545;50.892;5.740;2022-11-12T01:10:38;56274.84;;;-142.21;100.00
5053;BME280;2545;50.892;5.740;2022-11-12T01:13:04;56272.88;;;-142.21;100.00
5053;BME280;2545;50.892;5.740;2022-11-12T01:15:29;56290.53;;;-142.21;100.00
5053;BME280;2545;50.892;5.740;2022-11-12T01:17:55;56284.66;;;-142.21;100.00
5053;BME280;2545;50.892;5.740;2022-11-12T01:20:20;56241.50;;;-142.21;100.00
5053;BME280;2545;50.892;5.740;2022-11-12T01:22:45;56276.81;;;-142.21;100.00
5053;BME280;2545;50.892;5.740;2022-11-12T01:25:11;56280.72;;;-142.21;100.00
5053;BME280;2545;50.892;5.740;2022-11-12T01:27:36;56282.69;;;-142.21;100.00
5053;BME280;2545;50.892;5.740;2022-11-12T01:30:02;56261.13;;;-142.21;100.00
5053;BME280;2545;50.892;5.740;2022-11-12T01:32:28;56302.28;;;-142.21;100.00
5053;BME280;2545;50.892;5.740;2022-11-12T01:34:53;56292.50;;;-142.21;100.00
5053;BME280;2545;50.892;5.740;2022-11-12T01:37:19;56255.22;;;-142.21;100.00
5053;BME280;2545;50.892;5.740;2022-11-12T01:39:44;56268.97;;;-142.21;100.00
5053;BME280;2545;50.892;5.740;2022-11-12T01:42:10;56284.66;;;-142.21;100.00
5053;BME280;2545;50.892;5.740;2022-11-12T01:44:39;56284.66;;;-142.21;100.00
5053;BME280;2545;50.892;5.740;2022-11-12T01:49:46;56292.50;;;-142.21;100.00
5053;BME280;2545;50.892;5.740;2022-11-12T01:54:48;56294.47;;;-142.21;100.00
5053;BME280;2545;50.892;5.740;2022-11-12T01:57:14;56274.84;;;-142.21;100.00
5053;BME280;2545;50.892;5.740;2022-11-12T01:59:43;56286.63;;;-142.21;100.00
5053;BME280;2545;50.892;5.740;2022-11-12T02:02:09;56274.84;;;-142.21;100.00
5053;BME280;2545;50.892;5.740;2022-11-12T02:04:36;56259.16;;;-142.21;100.00
5053;BME280;2545;50.892;5.740;2022-11-12T02:07:05;56272.88;;;-142.21;100.00
5053;BME280;2545;50.892;5.740;2022-11-12T02:09:32;56251.31;;;-142.21;100.00
5053;BME280;2545;50.892;5.740;2022-11-12T02:11:58;56282.69;;;-142.21;100.00
5053;BME280;2545;50.892;5.740;2022-11-12T02:14:24;56276.81;;;-142.21;100.00
5053;BME280;2545;50.892;5.740;2022-11-12T02:16:49;56268.97;;;-142.21;100.00
5053;BME280;2545;50.892;5.740;2022-11-12T02:19:15;56268.97;;;-142.21;100.00
5053;BME280;2545;50.892;5.740;2022-11-12T02:21:41;56263.06;;;-142.21;100.00
5053;BME280;2545;50.892;5.740;2022-11-12T02:26:44;56249.34;;;-142.21;100.00
5053;BME280;2545;50.892;5.740;2022-11-12T02:29:10;56257.19;;;-142.21;100.00
5053;BME280;2545;50.892;5.740;2022-11-12T02:31:35;56306.22;;;-142.21;100.00
5053;BME280;2545;50.892;5.740;2022-11-12T02:34:02;56265.03;;;-142.21;100.00
5053;BME280;2545;50.892;5.740;2022-11-12T02:36:28;56280.72;;;-142.21;100.00
5053;BME280;2545;50.892;5.740;2022-11-12T02:38:53;56288.56;;;-142.21;100.00
5053;BME280;2545;50.892;5.740;2022-11-12T02:41:18;56270.91;;;-142.21;100.00
5053;BME280;2545;50.892;5.740;2022-11-12T02:43:44;56296.41;;;-142.21;100.00
5053;BME280;2545;50.892;5.740;2022-11-12T02:46:10;56284.66;;;-142.21;100.00
5053;BME280;2545;50.892;5.740;2022-11-12T02:48:35;56255.22;;;-142.21;100.00
5053;BME280;2545;50.892;5.740;2022-11-12T02:51:00;56298.38;;;-142.21;100.00
5053;BME280;2545;50.892;5.740;2022-11-12T02:53:26;56292.50;;;-142.21;100.00
5053;BME280;2545;50.892;5.740;2022-11-12T02:55:51;56292.50;;;-142.21;100.00
5053;BME280;2545;50.892;5.740;2022-11-12T02:58:16;56317.97;;;-142.21;100.00
5053;BME280;2545;50.892;5.740;2022-11-12T03:00:42;56292.50;;;-142.21;100.00
5053;BME280;2545;50.892;5.740;2022-11-12T03:03:07;56261.13;;;-142.21;100.00
5053;BME280;2545;50.892;5.740;2022-11-12T03:05:33;56284.66;;;-142.21;100.00
5053;BME280;2545;50.892;5.740;2022-11-12T03:08:02;56253.28;;;-142.21;100.00
5053;BME280;2545;50.892;5.740;2022-11-12T03:10:29;56272.88;;;-142.21;100.00
5053;BME280;2545;50.892;5.740;2022-11-12T03:12:55;56247.38;;;-142.21;100.00
5053;BME280;2545;50.892;5.740;2022-11-12T03:15:21;56327.78;;;-142.21;100.00
5053;BME280;2545;50.892;5.740;2022-11-12T03:17:46;56263.06;;;-142.21;100.00
5053;BME280;2545;50.892;5.740;2022-11-12T03:20:12;56296.41;;;-142.21;100.00
5053;BME280;2545;50.892;5.740;2022-11-12T03:22:38;56288.56;;;-142.21;100.00
5053;BME280;2545;50.892;5.740;2022-11-12T03:25:04;56263.06;;;-142.21;100.00
5053;BME280;2545;50.892;5.740;2022-11-12T03:27:30;56245.44;;;-142.21;100.00
5053;BME280;2545;50.892;5.740;2022-11-12T03:29:55;56270.91;;;-142.21;100.00
5053;BME280;2545;50.892;5.740;2022-11-12T03:32:21;56280.72;;;-142.21;100.00
5053;BME280;2545;50.892;5.740;2022-11-12T03:34:46;56302.28;;;-142.21;100.00
5053;BME280;2545;50.892;5.740;2022-11-12T03:37:11;56296.41;;;-142.21;100.00
5053;BME280;2545;50.892;5.740;2022-11-12T03:39:37;56261.13;;;-142.21;100.00
5053;BME280;2545;50.892;5.740;2022-11-12T03:42:02;56265.03;;;-142.21;100.00
5053;BME280;2545;50.892;5.740;2022-11-12T03:44:28;56282.69;;;-142.21;100.00
5053;BME280;2545;50.892;5.740;2022-11-12T03:46:53;56288.56;;;-142.21;100.00
5053;BME280;2545;50.892;5.740;2022-11-12T03:49:18;56265.03;;;-142.21;100.00
5053;BME280;2545;50.892;5.740;2022-11-12T03:51:43;56263.06;;;-142.21;100.00
5053;BME280;2545;50.892;5.740;2022-11-12T03:54:09;56290.53;;;-142.21;100.00
5053;BME280;2545;50.892;5.740;2022-11-12T03:56:34;56241.50;;;-142.21;100.00
5053;BME280;2545;50.892;5.740;2022-11-12T03:58:59;56288.56;;;-142.21;100.00
5053;BME280;2545;50.892;5.740;2022-11-12T04:01:25;56282.69;;;-142.21;100.00
5053;BME280;2545;50.892;5.740;2022-11-12T04:03:50;56255.22;;;-142.21;100.00
5053;BME280;2545;50.892;5.740;2022-11-12T04:06:15;56284.66;;;-142.21;100.00
5053;BME280;2545;50.892;5.740;2022-11-12T04:08:59;56227.78;;;-142.21;100.00
5053;BME280;2545;50.892;5.740;2022-11-12T04:11:24;56317.97;;;-142.21;100.00
5053;BME280;2545;50.892;5.740;2022-11-12T04:13:50;56272.88;;;-142.21;100.00
5053;BME280;2545;50.892;5.740;2022-11-12T04:16:17;56288.56;;;-142.21;100.00
5053;BME280;2545;50.892;5.740;2022-11-12T04:19:04;56296.41;;;-142.21;100.00
5053;BME280;2545;50.892;5.740;2022-11-12T04:22:06;56294.47;;;-142.21;100.00
5053;BME280;2545;50.892;5.740;2022-11-12T04:24:36;56300.34;;;-142.21;100.00
5053;BME280;2545;50.892;5.740;2022-11-12T04:27:29;56272.88;;;-142.21;100.00
5053;BME280;2545;50.892;5.740;2022-11-12T04:29:55;56286.63;;;-142.21;100.00
5053;BME280;2545;50.892;5.740;2022-11-12T04:32:46;56229.75;;;-142.21;100.00
5053;BME280;2545;50.892;5.740;2022-11-12T04:35:11;56241.50;;;-142.21;100.00
5053;BME280;2545;50.892;5.740;2022-11-12T04:37:37;56217.97;;;-142.21;100.00
5053;BME280;2545;50.892;5.740;2022-11-12T04:42:59;56237.59;;;-142.21;100.00
5053;BME280;2545;50.892;5.740;2022-11-12T04:45:45;56268.97;;;-142.21;100.00
5053;BME280;2545;50.892;5.740;2022-11-12T04:48:11;56267.00;;;-142.21;100.00
5053;BME280;2545;50.892;5.740;2022-11-12T04:50:36;56265.03;;;-142.21;100.00
5053;BME280;2545;50.892;5.740;2022-11-12T04:53:02;56284.66;;;-142.21;100.00
5053;BME280;2545;50.892;5.740;2022-11-12T04:55:27;56300.34;;;-142.21;100.00
5053;BME280;2545;50.892;5.740;2022-11-12T04:57:52;56268.97;;;-142.21;100.00
5053;BME280;2545;50.892;5.740;2022-11-12T05:00:18;56292.50;;;-142.21;100.00
5053;BME280;2545;50.892;5.740;2022-11-12T05:02:43;56304.25;;;-142.21;100.00
5053;BME280;2545;50.892;5.740;2022-11-12T05:05:09;56265.03;;;-142.21;100.00
5053;BME280;2545;50.892;5.740;2022-11-12T05:07:34;56261.13;;;-142.21;100.00
5053;BME280;2545;50.892;5.740;2022-11-12T05:09:59;56263.06;;;-142.21;100.00
5053;BME280;2545;50.892;5.740;2022-11-12T05:12:25;56229.75;;;-142.21;100.00
5053;BME280;2545;50.892;5.740;2022-11-12T05:14:50;56286.63;;;-142.21;100.00
5053;BME280;2545;50.892;5.740;2022-11-12T05:17:15;56274.84;;;-142.21;100.00
5053;BME280;2545;50.892;5.740;2022-11-12T05:19:41;56298.38;;;-142.21;100.00
5053;BME280;2545;50.892;5.740;2022-11-12T05:22:09;56270.91;;;-142.21;100.00
5053;BME280;2545;50.892;5.740;2022-11-12T05:24:40;56251.31;;;-142.21;100.00
5053;BME280;2545;50.892;5.740;2022-11-12T05:27:10;56270.91;;;-142.21;100.00
5053;BME280;2545;50.892;5.740;2022-11-12T05:29:36;56272.88;;;-142.21;100.00
5053;BME280;2545;50.892;5.740;2022-11-12T05:32:02;56276.81;;;-142.21;100.00
5053;BME280;2545;50.892;5.740;2022-11-12T05:34:28;56290.53;;;-142.21;100.00
5053;BME280;2545;50.892;5.740;2022-11-12T05:36:53;56265.03;;;-142.21;100.00
5053;BME280;2545;50.892;5.740;2022-11-12T05:39:18;56292.50;;;-142.21;100.00
5053;BME280;2545;50.892;5.740;2022-11-12T05:41:44;56229.75;;;-142.21;100.00
5053;BME280;2545;50.892;5.740;2022-11-12T05:44:09;56268.97;;;-142.21;100.00
5053;BME280;2545;50.892;5.740;2022-11-12T05:46:34;56272.88;;;-142.21;100.00
5053;BME280;2545;50.892;5.740;2022-11-12T05:49:00;56270.91;;;-142.21;100.00
5053;BME280;2545;50.892;5.740;2022-11-12T05:51:25;56259.16;;;-142.21;100.00
5053;BME280;2545;50.892;5.740;2022-11-12T05:53:50;56278.78;;;-142.21;100.00
5053;BME280;2545;50.892;5.740;2022-11-12T05:56:16;56323.88;;;-142.21;100.00
5053;BME280;2545;50.892;5.740;2022-11-12T05:58:41;56268.97;;;-142.21;100.00
5053;BME280;2545;50.892;5.740;2022-11-12T06:01:06;56276.81;;;-142.21;100.00
5053;BME280;2545;50.892;5.740;2022-11-12T06:03:32;56263.06;;;-142.21;100.00
5053;BME280;2545;50.892;5.740;2022-11-12T06:05:57;56272.88;;;-142.21;100.00
5053;BME280;2545;50.892;5.740;2022-11-12T06:08:23;56288.56;;;-142.21;100.00
5053;BME280;2545;50.892;5.740;2022-11-12T06:10:49;56270.91;;;-142.21;100.00
5053;BME280;2545;50.892;5.740;2022-11-12T06:13:15;56284.66;;;-142.21;100.00
5053;BME280;2545;50.892;5.740;2022-11-12T06:15:40;56280.72;;;-142.21;100.00
5053;BME280;2545;50.892;5.740;2022-11-12T06:18:05;56253.28;;;-142.21;100.00
5053;BME280;2545;50.892;5.740;2022-11-12T06:20:31;56267.00;;;-142.21;100.00
5053;BME280;2545;50.892;5.740;2022-11-12T06:22:56;56253.28;;;-142.21;100.00
5053;BME280;2545;50.892;5.740;2022-11-12T06:25:22;56298.38;;;-142.21;100.00
5053;BME280;2545;50.892;5.740;2022-11-12T06:27:47;56267.00;;;-142.21;100.00
5053;BME280;2545;50.892;5.740;2022-11-12T06:30:12;56229.75;;;-142.21;100.00
5053;BME280;2545;50.892;5.740;2022-11-12T06:32:38;56268.97;;;-142.21;100.00
5053;BME280;2545;50.892;5.740;2022-11-12T06:35:03;56317.97;;;-142.21;100.00
5053;BME280;2545;50.892;5.740;2022-11-12T06:37:29;56265.03;;;-142.21;100.00
5053;BME280;2545;50.892;5.740;2022-11-12T06:39:54;56294.47;;;-142.21;100.00
5053;BME280;2545;50.892;5.740;2022-11-12T06:42:19;56267.00;;;-142.21;100.00
5053;BME280;2545;50.892;5.740;2022-11-12T06:44:44;56267.00;;;-142.21;100.00
5053;BME280;2545;50.892;5.740;2022-11-12T06:47:10;56270.91;;;-142.21;100.00
5053;BME280;2545;50.892;5.740;2022-11-12T06:49:35;56237.59;;;-142.21;100.00
5053;BME280;2545;50.892;5.740;2022-11-12T06:52:01;56272.88;;;-142.21;100.00
5053;BME280;2545;50.892;5.740;2022-11-12T06:54:27;56276.81;;;-142.21;100.00
5053;BME280;2545;50.892;5.740;2022-11-12T06:56:52;56345.44;;;-142.21;100.00
5053;BME280;2545;50.892;5.740;2022-11-12T06:59:17;56298.38;;;-142.21;100.00
5053;BME280;2545;50.892;5.740;2022-11-12T07:01:43;56276.81;;;-142.21;100.00
5053;BME280;2545;50.892;5.740;2022-11-12T07:04:08;56280.72;;;-142.21;100.00
5053;BME280;2545;50.892;5.740;2022-11-12T07:06:35;56257.19;;;-142.21;100.00
5053;BME280;2545;50.892;5.740;2022-11-12T07:09:00;56280.72;;;-142.21;100.00
5053;BME280;2545;50.892;5.740;2022-11-12T07:11:25;56284.66;;;-142.21;100.00
5053;BME280;2545;50.892;5.740;2022-11-12T07:13:51;56268.97;;;-142.21;100.00
5053;BME280;2545;50.892;5.740;2022-11-12T07:16:16;56270.91;;;-142.21;100.00
5053;BME280;2545;50.892;5.740;2022-11-12T07:18:44;56263.06;;;-142.21;100.00
5053;BME280;2545;50.892;5.740;2022-11-12T07:21:12;56261.13;;;-142.21;100.00
5053;BME280;2545;50.892;5.740;2022-11-12T07:23:38;56282.69;;;-142.21;100.00
5053;BME280;2545;50.892;5.740;2022-11-12T07:26:25;56267.00;;;-142.21;100.00
5053;BME280;2545;50.892;5.740;2022-11-12T07:28:53;56308.19;;;-142.21;100.00
5053;BME280;2545;50.892;5.740;2022-11-12T07:31:22;56317.97;;;-142.21;100.00
5053;BME280;2545;50.892;5.740;2022-11-12T07:33:48;56268.97;;;-142.21;100.00
5053;BME280;2545;50.892;5.740;2022-11-12T07:36:15;56290.53;;;-142.21;100.00
5053;BME280;2545;50.892;5.740;2022-11-12T07:38:42;56280.72;;;-142.21;100.00
5053;BME280;2545;50.892;5.740;2022-11-12T07:41:16;56267.00;;;-142.21;100.00
5053;BME280;2545;50.892;5.740;2022-11-12T07:43:43;56306.22;;;-142.21;100.00
5053;BME280;2545;50.892;5.740;2022-11-12T07:46:14;56282.69;;;-142.21;100.00
5053;BME280;2545;50.892;5.740;2022-11-12T07:48:41;56276.81;;;-142.21;100.00
5053;BME280;2545;50.892;5.740;2022-11-12T07:51:12;56247.38;;;-142.21;100.00
5053;BME280;2545;50.892;5.740;2022-11-12T07:53:39;56276.81;;;-142.21;100.00
5053;BME280;2545;50.892;5.740;2022-11-12T07:56:05;56288.56;;;-142.21;100.00
5053;BME280;2545;50.892;5.740;2022-11-12T07:58:32;56270.91;;;-142.21;100.00
5053;BME280;2545;50.892;5.740;2022-11-12T08:03:49;56282.69;;;-142.21;100.00
5053;BME280;2545;50.892;5.740;2022-11-12T08:06:15;56304.25;;;-142.21;100.00
5053;BME280;2545;50.892;5.740;2022-11-12T08:08:40;56310.13;;;-142.21;100.00
5053;BME280;2545;50.892;5.740;2022-11-12T08:11:06;56314.06;;;-142.21;100.00
5053;BME280;2545;50.892;5.740;2022-11-12T08:13:31;56276.81;;;-142.21;100.00
5053;BME280;2545;50.892;5.740;2022-11-12T08:15:57;56268.97;;;-142.21;100.00
5053;BME280;2545;50.892;5.740;2022-11-12T08:18:23;56290.53;;;-142.21;100.00
5053;BME280;2545;50.892;5.740;2022-11-12T08:20:48;56267.00;;;-142.21;100.00
5053;BME280;2545;50.892;5.740;2022-11-12T08:23:13;56304.25;;;-142.21;100.00
5053;BME280;2545;50.892;5.740;2022-11-12T08:25:39;56294.47;;;-142.21;100.00
5053;BME280;2545;50.892;5.740;2022-11-12T08:28:04;56274.84;;;-142.21;100.00
5053;BME280;2545;50.892;5.740;2022-11-12T08:30:29;56296.41;;;-142.21;100.00
5053;BME280;2545;50.892;5.740;2022-11-12T08:33:00;56292.50;;;-142.21;100.00
5053;BME280;2545;50.892;5.740;2022-11-12T08:35:27;56284.66;;;-142.21;100.00
5053;BME280;2545;50.892;5.740;2022-11-12T08:38:00;56280.72;;;-142.21;100.00
5053;BME280;2545;50.892;5.740;2022-11-12T08:40:26;56243.47;;;-142.21;100.00
5053;BME280;2545;50.892;5.740;2022-11-12T08:43:02;56245.44;;;-142.21;100.00
5053;BME280;2545;50.892;5.740;2022-11-12T08:45:30;56280.72;;;-142.21;100.00
5053;BME280;2545;50.892;5.740;2022-11-12T08:47:59;56302.28;;;-142.21;100.00
5053;BME280;2545;50.892;5.740;2022-11-12T08:50:25;56268.97;;;-142.21;100.00
5053;BME280;2545;50.892;5.740;2022-11-12T08:52:51;56263.06;;;-142.21;100.00
5053;BME280;2545;50.892;5.740;2022-11-12T08:55:16;56292.50;;;-142.21;100.00
5053;BME280;2545;50.892;5.740;2022-11-12T08:57:42;56265.03;;;-142.21;100.00
5053;BME280;2545;50.892;5.740;2022-11-12T09:00:09;56268.97;;;-142.21;100.00
5053;BME280;2545;50.892;5.740;2022-11-12T09:02:35;56292.50;;;-142.21;100.00
5053;BME280;2545;50.892;5.740;2022-11-12T09:05:00;56257.19;;;-142.21;100.00
5053;BME280;2545;50.892;5.740;2022-11-12T09:07:26;56282.69;;;-142.21;100.00
5053;BME280;2545;50.892;5.740;2022-11-12T09:09:51;56290.53;;;-142.21;100.00
5053;BME280;2545;50.892;5.740;2022-11-12T09:12:17;56270.91;;;-142.21;100.00
5053;BME280;2545;50.892;5.740;2022-11-12T09:14:44;56276.81;;;-142.21;99.65
5053;BME280;2545;50.892;5.740;2022-11-12T09:17:09;56272.88;;;-142.21;99.43
5053;BME280;2545;50.892;5.740;2022-11-12T09:19:35;56290.53;;;-142.21;99.53
5053;BME280;2545;50.892;5.740;2022-11-12T09:22:00;56284.66;;;-142.21;99.93
5053;BME280;2545;50.892;5.740;2022-11-12T09:24:26;56286.63;;;-142.21;98.68
5053;BME280;2545;50.892;5.740;2022-11-12T09:26:52;56257.19;;;-142.21;96.18
5053;BME280;2545;50.892;5.740;2022-11-12T09:29:18;56276.81;;;-142.21;94.80
5053;BME280;2545;50.892;5.740;2022-11-12T09:31:43;56304.25;;;-142.21;95.31
5053;BME280;2545;50.892;5.740;2022-11-12T09:34:08;56300.34;;;-142.21;94.88
5053;BME280;2545;50.892;5.740;2022-11-12T09:36:34;56272.88;;;-142.21;93.83
5053;BME280;2545;50.892;5.740;2022-11-12T09:38:59;56245.44;;;-142.21;92.12
5053;BME280;2545;50.892;5.740;2022-11-12T09:41:28;56237.59;;;-142.21;91.56
5053;BME280;2545;50.892;5.740;2022-11-12T09:44:01;56276.81;;;-142.21;90.60
5053;BME280;2545;50.892;5.740;2022-11-12T09:47:01;56210.13;;;-142.21;89.07
5053;BME280;2545;50.892;5.740;2022-11-12T09:49:39;56263.06;;;-142.21;88.60
5053;BME280;2545;50.892;5.740;2022-11-12T09:52:16;56255.22;;;-142.21;86.07
5053;BME280;2545;50.892;5.740;2022-11-12T09:54:43;56278.78;;;-142.21;84.76
5053;BME280;2545;50.892;5.740;2022-11-12T09:57:10;56259.16;;;-142.21;84.36
5053;BME280;2545;50.892;5.740;2022-11-12T09:59:40;56276.81;;;-142.21;82.79
5053;BME280;2545;50.892;5.740;2022-11-12T10:05:12;56284.66;;;-142.21;80.59
5053;BME280;2545;50.892;5.740;2022-11-12T10:10:43;56251.31;;;-142.21;78.52
5053;BME280;2545;50.892;5.740;2022-11-12T10:15:36;56268.97;;;-142.21;77.19
5053;BME280;2545;50.892;5.740;2022-11-12T10:21:16;56243.47;;;-142.21;75.00
5053;BME280;2545;50.892;5.740;2022-11-12T10:23:47;56227.78;;;-142.21;74.52
5053;BME280;2545;50.892;5.740;2022-11-12T10:26:19;56255.22;;;-142.21;73.50
5053;BME280;2545;50.892;5.740;2022-11-12T10:31:18;56263.06;;;-142.21;71.92
5053;BME280;2545;50.892;5.740;2022-11-12T10:33:44;56267.00;;;-142.21;71.21
5053;BME280;2545;50.892;5.740;2022-11-12T10:36:29;56249.34;;;-142.21;70.43
5053;BME280;2545;50.892;5.740;2022-11-12T10:38:55;56255.22;;;-142.21;68.39
5053;BME280;2545;50.892;5.740;2022-11-12T10:43:59;56253.28;;;-142.21;66.01
5053;BME280;2545;50.892;5.740;2022-11-12T10:46:30;56237.59;;;-142.21;65.61
5053;BME280;2545;50.892;5.740;2022-11-12T10:48:59;56196.41;;;-142.21;62.85
5053;BME280;2545;50.892;5.740;2022-11-12T10:51:31;56229.75;;;-142.21;58.88
5053;BME280;2545;50.892;5.740;2022-11-12T10:53:57;56204.25;;;-142.21;56.78
5053;BME280;2545;50.892;5.740;2022-11-12T10:56:30;56210.13;;;-142.21;54.68
5053;BME280;2545;50.892;5.740;2022-11-12T10:59:09;56178.75;;;-142.21;50.17
5053;BME280;2545;50.892;5.740;2022-11-12T11:01:35;56167.00;;;-142.21;47.16
5053;BME280;2545;50.892;5.740;2022-11-12T11:04:00;56188.56;;;-142.21;44.30
5053;BME280;2545;50.892;5.740;2022-11-12T11:06:26;56188.56;;;-142.21;43.50
5053;BME280;2545;50.892;5.740;2022-11-12T11:09:14;56143.47;;;-142.21;42.06
5053;BME280;2545;50.892;5.740;2022-11-12T11:11:51;56147.38;;;-142.21;42.22
5053;BME280;2545;50.892;5.740;2022-11-12T11:16:50;56157.19;;;-142.21;43.01
5053;BME280;2545;50.892;5.740;2022-11-12T11:19:16;56186.59;;;-142.21;44.48
5053;BME280;2545;50.892;5.740;2022-11-12T11:27:28;56165.03;;;-142.21;49.84
5053;BME280;2545;50.892;5.740;2022-11-12T11:30:18;56178.75;;;-142.21;52.25
5053;BME280;2545;50.892;5.740;2022-11-12T11:32:59;56180.72;;;-142.21;53.39
5053;BME280;2545;50.892;5.740;2022-11-12T11:41:24;56202.28;;;-142.21;57.38
5053;BME280;2545;50.892;5.740;2022-11-12T11:44:17;56198.38;;;-142.21;56.96
5053;BME280;2545;50.892;5.740;2022-11-12T11:46:57;56198.38;;;-142.21;57.05
5053;BME280;2545;50.892;5.740;2022-11-12T11:49:41;56180.72;;;-142.21;57.30
5053;BME280;2545;50.892;5.740;2022-11-12T11:57:20;56206.22;;;-142.21;59.64
5053;BME280;2545;50.892;5.740;2022-11-12T12:03:19;56196.41;;;-142.21;62.86
5053;BME280;2545;50.892;5.740;2022-11-12T12:11:11;56178.75;;;-142.21;52.14
5053;BME280;2545;50.892;5.740;2022-11-12T12:21:36;56112.09;;;-142.21;37.85
5053;BME280;2545;50.892;5.740;2022-11-12T12:24:13;56076.78;;;-142.21;36.18
5053;BME280;2545;50.892;5.740;2022-11-12T12:27:14;56031.69;;;-142.21;34.70
5053;BME280;2545;50.892;5.740;2022-11-12T12:29:46;56072.88;;;-142.21;34.07
5053;BME280;2545;50.892;5.740;2022-11-12T12:35:19;56017.97;;;-142.21;32.90
5053;BME280;2545;50.892;5.740;2022-11-12T12:38:04;56021.88;;;-142.21;32.40
5053;BME280;2545;50.892;5.740;2022-11-12T12:40:38;55994.44;;;-142.21;32.07
5053;BME280;2545;50.892;5.740;2022-11-12T12:43:38;56025.81;;;-142.21;32.65
5053;BME280;2545;50.892;5.740;2022-11-12T12:46:05;56041.50;;;-142.21;32.66
5053;BME280;2545;50.892;5.740;2022-11-12T12:48:39;56047.38;;;-142.21;32.60
5053;BME280;2545;50.892;5.740;2022-11-12T12:51:06;56037.56;;;-142.21;32.46
5053;BME280;2545;50.892;5.740;2022-11-12T12:53:33;56021.88;;;-142.21;32.54
5053;BME280;2545;50.892;5.740;2022-11-12T12:56:40;56021.88;;;-142.21;32.18
5053;BME280;2545;50.892;5.740;2022-11-12T12:58:51;56043.47;;;-142.21;31.39
5053;BME280;2545;50.892;5.740;2022-11-12T13:03:54;55931.69;;;-142.21;31.01
5053;BME280;2545;50.892;5.740;2022-11-12T13:08:49;55965.03;;;-142.21;31.05
5053;BME280;2545;50.892;5.740;2022-11-12T13:17:11;55951.31;;;-142.21;30.03
5053;BME280;2545;50.892;5.740;2022-11-12T13:35:27;55968.94;;;-142.21;29.37
5053;BME280;2545;50.892;5.740;2022-11-12T13:38:01;55959.16;;;-142.21;29.77
5053;BME280;2545;50.892;5.740;2022-11-12T13:40:37;55941.50;;;-142.21;30.85
5053;BME280;2545;50.892;5.740;2022-11-12T13:45:32;55986.59;;;-142.21;32.17
5053;BME280;2545;50.892;5.740;2022-11-12T13:48:00;55951.31;;;-142.21;32.72
5053;BME280;2545;50.892;5.740;2022-11-12T13:50:30;55980.72;;;-142.21;32.62
5053;BME280;2545;50.892;5.740;2022-11-12T13:52:55;55945.41;;;-142.21;32.42
5053;BME280;2545;50.892;5.740;2022-11-12T13:55:21;56021.88;;;-142.21;32.36
5053;BME280;2545;50.892;5.740;2022-11-12T14:00:24;55974.84;;;-142.21;31.78
5053;BME280;2545;50.892;5.740;2022-11-12T14:02:56;56021.88;;;-142.21;32.24
5053;BME280;2545;50.892;5.740;2022-11-12T14:05:25;55980.72;;;-142.21;33.15
5053;BME280;2545;50.892;5.740;2022-11-12T14:13:13;56021.88;;;-142.21;33.35
5053;BME280;2545;50.892;5.740;2022-11-12T14:21:05;56047.38;;;-142.21;34.87
5053;BME280;2545;50.892;5.740;2022-11-12T14:23:31;56065.03;;;-142.21;35.50
5053;BME280;2545;50.892;5.740;2022-11-12T14:26:00;56086.59;;;-142.21;36.33
5053;BME280;2545;50.892;5.740;2022-11-12T14:28:33;56065.03;;;-142.21;37.02
5053;BME280;2545;50.892;5.740;2022-11-12T14:31:00;56100.31;;;-142.21;37.91
5053;BME280;2545;50.892;5.740;2022-11-12T14:33:28;56055.22;;;-142.21;39.28
5053;BME280;2545;50.892;5.740;2022-11-12T14:36:02;56127.78;;;-142.21;41.16
5053;BME280;2545;50.892;5.740;2022-11-12T14:38:36;56100.31;;;-142.21;42.91
5053;BME280;2545;50.892;5.740;2022-11-12T14:41:07;56123.84;;;-142.21;44.04
5053;BME280;2545;50.892;5.740;2022-11-12T14:43:43;56139.53;;;-142.21;45.56
5053;BME280;2545;50.892;5.740;2022-11-12T14:46:38;56159.16;;;-142.21;47.47
5053;BME280;2545;50.892;5.740;2022-11-12T14:51:46;56127.78;;;-142.21;49.67